Time;durP1;ratioP1;P1;durP2;ratioP2;P2;SDS_P1;SDS_P2;PMS_P1;PMS_P2;Temp;Humidity;BMP_temperature;BMP_pressure;BME280_temperature;BME280_humidity;BME280_pressure;Samples;Min_cycle;Max_cycle;Signal;HPM_P1;HPM_P2
2022/06/24 00:02:01;;;;;;;;;;;;;;;16.54;90.65;99142.34;1674362;84;20088;-67
2022/06/24 00:04:30;;;;;;;;;;;;;;;16.53;90.72;99144.09;1674283;85;20121;-67
2022/06/24 00:06:56;;;;;;;;;;;;;;;16.51;91.02;99144.47;1674259;84;21272;-67
2022/06/24 00:09:28;;;;;;;;;;;;;;;16.48;90.99;99143.22;1674232;85;20101;-67
2022/06/24 00:12:03;;;;;;;;;;;;;;;16.49;91.08;99149.56;1674287;85;20120;-67
2022/06/24 00:14:29;;;;;;;;;;;;;;;16.48;91.47;99144.61;1653169;85;20431;-67
2022/06/24 00:17:01;;;;;;;;;;;;;;;16.47;91.46;99140.23;1674245;84;20427;-66
2022/06/24 00:19:30;;;;;;;;;;;;;;;16.46;91.97;99141.40;1653335;85;21188;-67
2022/06/24 00:22:08;;;;;;;;;;;;;;;16.47;91.81;99145.77;1674161;85;20160;-67
2022/06/24 00:24:36;;;;;;;;;;;;;;;16.46;91.88;99148.33;1674475;85;20440;-67
2022/06/24 00:27:04;;;;;;;;;;;;;;;16.45;92.13;99143.95;1674299;85;20142;-67
2022/06/24 00:29:32;;;;;;;;;;;;;;;16.44;91.96;99149.27;1674865;85;20121;-67
2022/06/24 00:32:06;;;;;;;;;;;;;;;16.45;91.92;99149.49;1676623;84;21236;-67
2022/06/24 00:34:35;;;;;;;;;;;;;;;16.46;92.02;99148.91;1680402;85;20086;-67
2022/06/24 00:37:23;;;;;;;;;;;;;;;16.45;91.98;99156.42;1680200;85;20086;-67
2022/06/24 00:39:50;;;;;;;;;;;;;;;16.46;92.24;99157.22;1680503;85;20119;-67
2022/06/24 00:42:17;;;;;;;;;;;;;;;16.47;92.43;99156.86;1680608;85;20086;-67
2022/06/24 00:44:55;;;;;;;;;;;;;;;16.47;92.69;99148.55;1680584;85;21839;-67
2022/06/24 00:47:22;;;;;;;;;;;;;;;16.47;92.39;99154.67;1670584;85;20086;-66
2022/06/24 00:49:49;;;;;;;;;;;;;;;16.46;92.29;99156.64;1680498;85;20102;-66
2022/06/24 00:52:16;;;;;;;;;;;;;;;16.48;92.49;99159.84;1680487;85;20102;-66
2022/06/24 00:54:43;;;;;;;;;;;;;;;16.49;92.54;99160.65;1680597;85;20452;-66
2022/06/24 00:57:10;;;;;;;;;;;;;;;16.49;92.15;99162.03;1680587;85;21105;-66
2022/06/24 00:59:38;;;;;;;;;;;;;;;16.49;92.10;99164.22;1680390;84;20142;-66
2022/06/24 01:02:06;;;;;;;;;;;;;;;16.50;91.77;99162.25;1680576;85;20106;-66
2022/06/24 01:04:34;;;;;;;;;;;;;;;16.52;91.61;99158.53;1680903;85;20467;-67
2022/06/24 01:07:00;;;;;;;;;;;;;;;16.54;91.57;99161.74;1680606;85;20097;-67
2022/06/24 01:09:27;;;;;;;;;;;;;;;16.54;91.49;99154.02;1680554;85;21139;-67
2022/06/24 01:11:54;;;;;;;;;;;;;;;16.54;91.43;99154.81;1680402;85;20136;-67
2022/06/24 01:14:20;;;;;;;;;;;;;;;16.55;91.55;99158.39;1680409;84;20102;-67
2022/06/24 01:16:47;;;;;;;;;;;;;;;16.53;91.55;99158.76;1680573;85;20126;-66
2022/06/24 01:19:14;;;;;;;;;;;;;;;16.53;91.58;99155.98;1681192;84;20444;-67
2022/06/24 01:21:48;;;;;;;;;;;;;;;16.55;91.47;99160.58;1680718;85;21213;-67
2022/06/24 01:24:23;;;;;;;;;;;;;;;16.54;91.50;99161.74;1659856;85;20074;-67
2022/06/24 01:26:52;;;;;;;;;;;;;;;16.53;91.43;99162.91;1680732;85;20103;-67
2022/06/24 01:29:19;;;;;;;;;;;;;;;16.53;91.46;99162.11;1680763;85;20086;-67
2022/06/24 01:31:48;;;;;;;;;;;;;;;16.50;91.54;99163.05;1680233;85;20090;-67
2022/06/24 01:34:16;;;;;;;;;;;;;;;16.49;91.64;99154.52;1677667;85;39043;-66
2022/06/24 01:36:43;;;;;;;;;;;;;;;16.49;91.71;99161.45;1674880;84;20157;-67
2022/06/24 01:39:09;;;;;;;;;;;;;;;16.48;91.66;99155.69;1674857;84;20117;-66
2022/06/24 01:41:38;;;;;;;;;;;;;;;16.48;91.62;99160.43;1674963;84;20100;-67
2022/06/24 01:44:04;;;;;;;;;;;;;;;16.47;91.66;99167.14;1674998;84;20132;-67
2022/06/24 01:46:31;;;;;;;;;;;;;;;16.47;91.63;99172.67;1674831;84;21108;-66
2022/06/24 01:48:58;;;;;;;;;;;;;;;16.47;92.09;99187.33;1674829;85;20105;-66
2022/06/24 01:51:24;;;;;;;;;;;;;;;16.50;93.70;99180.27;1674909;84;20120;-66
2022/06/24 01:53:52;;;;;;;;;;;;;;;16.58;94.90;99177.06;1674817;85;20100;-66
2022/06/24 01:56:20;;;;;;;;;;;;;;;16.62;95.10;99169.03;1674828;85;20172;-66
2022/06/24 01:58:47;;;;;;;;;;;;;;;16.62;95.44;99166.27;1674823;85;22087;-66
2022/06/24 02:01:13;;;;;;;;;;;;;;;16.59;95.88;99169.77;1674867;85;20427;-66
2022/06/24 02:03:40;;;;;;;;;;;;;;;16.61;96.41;99168.02;1674923;85;20105;-66
2022/06/24 02:06:09;;;;;;;;;;;;;;;16.57;96.76;99172.10;1674862;84;20088;-66
2022/06/24 02:08:36;;;;;;;;;;;;;;;16.55;96.96;99160.58;1674839;85;20088;-67
2022/06/24 02:13:49;;;;;;;;;;;;;;;16.42;97.38;99141.91;1674900;84;20120;-66
2022/06/24 02:16:16;;;;;;;;;;;;;;;16.33;98.01;99139.13;1674748;84;20423;-66
2022/06/24 02:18:42;;;;;;;;;;;;;;;16.28;98.99;99147.15;1672257;84;20185;-66
2022/06/24 02:21:09;;;;;;;;;;;;;;;16.26;99.56;99154.21;1647148;86;20090;-66
2022/06/24 02:23:35;;;;;;;;;;;;;;;16.27;100.00;99166.89;1660353;85;21798;-67
2022/06/24 02:26:02;;;;;;;;;;;;;;;16.29;100.00;99162.60;1663838;84;20090;-66
2022/06/24 02:28:28;;;;;;;;;;;;;;;16.33;100.00;99167.63;1664574;85;20159;-66
2022/06/24 02:30:58;;;;;;;;;;;;;;;16.31;99.59;99163.05;1675277;84;20092;-66
2022/06/24 02:33:25;;;;;;;;;;;;;;;16.29;100.00;99168.14;1674579;84;20430;-66
2022/06/24 02:35:52;;;;;;;;;;;;;;;16.30;99.75;99171.72;1676376;84;21241;-66
2022/06/24 02:38:20;;;;;;;;;;;;;;;16.25;99.70;99168.64;1679313;85;20411;-67
2022/06/24 02:40:50;;;;;;;;;;;;;;;16.22;100.00;99163.83;1675320;84;20277;-66
2022/06/24 02:43:19;;;;;;;;;;;;;;;16.16;100.00;99163.92;1673066;85;20121;-67
2022/06/24 02:45:47;;;;;;;;;;;;;;;16.11;100.00;99162.23;1674272;85;20116;-67
2022/06/24 02:48:15;;;;;;;;;;;;;;;16.08;100.00;99159.39;1674390;84;21264;-66
2022/06/24 02:50:43;;;;;;;;;;;;;;;16.04;100.00;99159.31;1674234;84;20100;-67
2022/06/24 02:53:11;;;;;;;;;;;;;;;16.04;100.00;99161.28;1674558;84;20088;-67
2022/06/24 02:55:39;;;;;;;;;;;;;;;16.01;100.00;99158.65;1674429;84;20124;-66
2022/06/24 02:58:05;;;;;;;;;;;;;;;15.99;100.00;99154.63;1675007;84;20185;-70
2022/06/24 03:00:32;;;;;;;;;;;;;;;15.98;100.00;99151.64;1675548;84;21164;-67
2022/06/24 03:03:00;;;;;;;;;;;;;;;15.97;100.00;99155.58;1680393;85;20121;-67
2022/06/24 03:05:27;;;;;;;;;;;;;;;16.00;100.00;99162.58;1680367;85;20283;-67
2022/06/24 03:07:53;;;;;;;;;;;;;;;16.06;100.00;99165.29;1671719;84;20098;-67
2022/06/24 03:10:21;;;;;;;;;;;;;;;16.04;100.00;99169.58;1672226;85;20090;-67
2022/06/24 03:12:47;;;;;;;;;;;;;;;16.05;100.00;99173.38;1680255;85;20629;-68
2022/06/24 03:15:14;;;;;;;;;;;;;;;16.03;99.91;99170.16;1680221;84;20121;-67
2022/06/24 03:17:40;;;;;;;;;;;;;;;16.02;99.53;99162.22;1674327;85;20155;-67
2022/06/24 03:20:08;;;;;;;;;;;;;;;15.98;99.28;99166.88;1674478;84;20147;-67
2022/06/24 03:22:34;;;;;;;;;;;;;;;15.94;99.18;99164.60;1653374;85;20096;-67
2022/06/24 03:25:02;;;;;;;;;;;;;;;15.92;99.14;99158.62;1678831;84;21795;-68
2022/06/24 03:27:29;;;;;;;;;;;;;;;15.91;98.93;99161.17;1664948;85;20109;-67
2022/06/24 03:29:55;;;;;;;;;;;;;;;15.89;98.92;99160.73;1654594;85;20090;-66
2022/06/24 03:32:22;;;;;;;;;;;;;;;15.88;98.88;99166.05;1647118;86;20582;-67
2022/06/24 03:34:49;;;;;;;;;;;;;;;15.87;98.17;99159.70;1647254;86;20123;-66
2022/06/24 03:37:15;;;;;;;;;;;;;;;15.85;98.52;99165.59;1646524;86;21147;-67
2022/06/24 03:39:42;;;;;;;;;;;;;;;15.89;98.62;99164.30;1645590;87;20106;-67
2022/06/24 03:42:09;;;;;;;;;;;;;;;15.91;98.58;99170.86;1647141;86;20479;-66
2022/06/24 03:44:35;;;;;;;;;;;;;;;15.93;98.96;99169.34;1647240;87;20127;-69
2022/06/24 03:47:02;;;;;;;;;;;;;;;15.94;98.16;99165.98;1647221;86;20126;-68
2022/06/24 03:49:29;;;;;;;;;;;;;;;15.97;97.91;99170.80;1647193;86;22110;-68
2022/06/24 03:51:56;;;;;;;;;;;;;;;16.00;97.63;99170.08;1647328;86;20115;-68
2022/06/24 03:54:22;;;;;;;;;;;;;;;16.02;96.81;99169.14;1647103;86;20445;-69
2022/06/24 03:56:49;;;;;;;;;;;;;;;16.03;96.08;99166.01;1647210;86;20200;-70
2022/06/24 03:59:15;;;;;;;;;;;;;;;16.06;96.50;99162.52;1647196;86;20454;-67
2022/06/24 04:01:42;;;;;;;;;;;;;;;16.10;95.74;99169.52;1647247;87;21145;-67
2022/06/24 04:04:09;;;;;;;;;;;;;;;16.16;95.33;99166.11;1647370;86;20094;-69
2022/06/24 04:06:37;;;;;;;;;;;;;;;16.24;95.56;99157.93;1647331;86;20485;-69
2022/06/24 04:09:03;;;;;;;;;;;;;;;16.31;95.25;99156.12;1647172;86;20103;-72
2022/06/24 04:11:30;;;;;;;;;;;;;;;16.34;94.38;99155.97;1647314;86;20126;-70
2022/06/24 04:13:56;;;;;;;;;;;;;;;16.36;93.08;99158.59;1647598;85;21122;-71
2022/06/24 04:16:23;;;;;;;;;;;;;;;16.39;92.56;99162.61;1646112;86;20130;-70
2022/06/24 04:18:50;;;;;;;;;;;;;;;16.45;92.75;99166.11;1646999;86;20103;-69
2022/06/24 04:21:17;;;;;;;;;;;;;;;16.51;91.74;99164.66;1646499;86;20126;-70
2022/06/24 04:23:43;;;;;;;;;;;;;;;16.56;91.00;99162.19;1646971;86;20162;-69
2022/06/24 04:26:10;;;;;;;;;;;;;;;16.61;90.82;99167.44;1647129;87;21100;-68
2022/06/24 04:28:37;;;;;;;;;;;;;;;16.65;90.24;99163.37;1646968;86;20512;-68
2022/06/24 04:31:04;;;;;;;;;;;;;;;16.70;90.55;99175.56;1647054;86;20126;-67
2022/06/24 04:33:31;;;;;;;;;;;;;;;16.77;90.45;99172.31;1647131;86;20130;-71
2022/06/24 04:35:57;;;;;;;;;;;;;;;16.86;89.70;99170.70;1647039;86;20130;-71
2022/06/24 04:38:24;;;;;;;;;;;;;;;16.91;88.92;99173.18;1647340;87;21139;-71
2022/06/24 04:40:50;;;;;;;;;;;;;;;16.98;87.71;99168.36;1647054;86;20425;-71
2022/06/24 04:43:16;;;;;;;;;;;;;;;17.05;87.84;99162.36;1647330;87;20090;-69
2022/06/24 04:45:44;;;;;;;;;;;;;;;17.14;87.52;99168.47;1647054;86;20175;-69
2022/06/24 04:48:10;;;;;;;;;;;;;;;17.24;85.52;99157.94;1647112;86;20115;-67
2022/06/24 04:50:37;;;;;;;;;;;;;;;17.33;83.80;99159.89;1646923;87;21152;-67
2022/06/24 04:53:03;;;;;;;;;;;;;;;17.39;83.72;99170.27;1647012;87;20103;-68
2022/06/24 04:55:30;;;;;;;;;;;;;;;17.48;83.22;99166.67;1647130;86;20083;-70
2022/06/24 04:57:57;;;;;;;;;;;;;;;17.57;82.46;99167.00;1647053;87;20126;-65
2022/06/24 05:00:25;;;;;;;;;;;;;;;17.64;82.23;99172.09;1628483;87;20090;-69
2022/06/24 05:02:52;;;;;;;;;;;;;;;17.73;81.58;99174.64;1647107;87;21600;-68
2022/06/24 05:05:18;;;;;;;;;;;;;;;17.77;81.76;99177.69;1647067;86;20449;-71
2022/06/24 05:07:45;;;;;;;;;;;;;;;17.85;80.48;99178.60;1625743;87;20111;-72
2022/06/24 05:10:11;;;;;;;;;;;;;;;17.94;80.36;99181.08;1647029;87;20103;-70
2022/06/24 05:12:38;;;;;;;;;;;;;;;18.01;78.04;99176.44;1647328;86;20498;-69
2022/06/24 05:15:05;;;;;;;;;;;;;;;18.06;77.97;99184.45;1647044;85;21143;-71
2022/06/24 05:17:32;;;;;;;;;;;;;;;18.09;76.21;99191.23;1646882;86;20098;-73
2022/06/24 05:19:58;;;;;;;;;;;;;;;18.12;75.71;99183.55;1646873;85;20106;-71
2022/06/24 05:22:25;;;;;;;;;;;;;;;18.19;75.35;99189.20;1647169;87;20404;-72
2022/06/24 05:24:51;;;;;;;;;;;;;;;18.27;75.09;99197.86;1646978;87;20127;-68
2022/06/24 05:27:19;;;;;;;;;;;;;;;18.38;74.59;99202.98;1647049;86;21797;-70
2022/06/24 05:29:45;;;;;;;;;;;;;;;18.47;74.33;99200.72;1646913;86;20171;-70
2022/06/24 05:32:12;;;;;;;;;;;;;;;18.53;72.69;99205.33;1647069;86;20175;-71
2022/06/24 05:34:38;;;;;;;;;;;;;;;18.58;72.23;99204.20;1647090;86;20139;-72
2022/06/24 05:37:05;;;;;;;;;;;;;;;18.63;72.85;99206.68;1647419;87;20079;-68
2022/06/24 05:39:31;;;;;;;;;;;;;;;18.68;73.47;99199.40;1662958;85;21147;-68
2022/06/24 05:41:59;;;;;;;;;;;;;;;18.82;73.20;99203.75;1676407;85;20132;-68
2022/06/24 05:44:25;;;;;;;;;;;;;;;18.96;70.62;99197.55;1674738;85;20103;-67
2022/06/24 05:46:54;;;;;;;;;;;;;;;19.07;71.47;99200.64;1674372;84;20398;-73
2022/06/24 05:49:20;;;;;;;;;;;;;;;19.21;71.19;99203.36;1674678;84;20100;-71
2022/06/24 05:51:46;;;;;;;;;;;;;;;19.40;70.58;99203.16;1653348;85;21093;-71
2022/06/24 05:56:57;;;;;;;;;;;;;;;19.85;69.65;99197.00;1674544;85;20135;-73
2022/06/24 05:59:24;;;;;;;;;;;;;;;19.98;67.88;99197.70;1674225;84;20497;-72
2022/06/24 06:01:51;;;;;;;;;;;;;;;20.02;66.41;99199.13;1674632;85;20141;-71
2022/06/24 06:04:17;;;;;;;;;;;;;;;19.99;67.21;99200.70;1674301;84;21116;-71
2022/06/24 06:06:45;;;;;;;;;;;;;;;20.01;66.90;99198.92;1674267;84;20116;-70
2022/06/24 06:09:12;;;;;;;;;;;;;;;19.99;67.22;99205.47;1674370;85;20124;-65
2022/06/24 06:11:38;;;;;;;;;;;;;;;19.96;66.20;99203.45;1674339;84;20089;-66
2022/06/24 06:14:05;;;;;;;;;;;;;;;19.97;67.16;99206.45;1674207;84;20088;-68
2022/06/24 06:16:32;;;;;;;;;;;;;;;20.05;66.97;99208.10;1674235;85;22054;-66
2022/06/24 06:18:58;;;;;;;;;;;;;;;20.17;66.81;99195.84;1676994;84;20184;-70
2022/06/24 06:21:25;;;;;;;;;;;;;;;20.27;67.01;99209.81;1699491;84;20124;-69
2022/06/24 06:23:51;;;;;;;;;;;;;;;20.30;65.15;99203.47;1699684;83;20409;-68
2022/06/24 06:26:18;;;;;;;;;;;;;;;20.31;64.82;99200.09;1699442;83;20150;-72
2022/06/24 06:28:44;;;;;;;;;;;;;;;20.34;66.22;99202.09;1699329;84;21770;-71
2022/06/24 06:31:11;;;;;;;;;;;;;;;20.39;65.31;99201.76;1699410;84;20099;-69
2022/06/24 06:33:38;;;;;;;;;;;;;;;20.42;66.06;99204.56;1699552;83;20505;-66
2022/06/24 06:36:06;;;;;;;;;;;;;;;20.44;64.69;99206.38;1699512;84;20132;-70
2022/06/24 06:38:33;;;;;;;;;;;;;;;20.49;61.96;99201.02;1699623;84;20079;-68
2022/06/24 06:40:59;;;;;;;;;;;;;;;20.58;62.75;99204.84;1699364;83;21053;-70
2022/06/24 06:43:27;;;;;;;;;;;;;;;20.68;63.83;99212.47;1699251;84;20446;-69
2022/06/24 06:45:53;;;;;;;;;;;;;;;20.78;63.67;99203.35;1699675;84;20091;-69
2022/06/24 06:48:20;;;;;;;;;;;;;;;20.94;62.30;99209.36;1699699;84;20169;-69
2022/06/24 06:50:47;;;;;;;;;;;;;;;21.08;62.37;99209.41;1699398;84;20118;-70
2022/06/24 06:53:14;;;;;;;;;;;;;;;21.15;61.13;99205.84;1699551;84;22185;-69
2022/06/24 06:55:40;;;;;;;;;;;;;;;21.19;61.53;99212.23;1699550;83;20079;-73
2022/06/24 06:58:06;;;;;;;;;;;;;;;21.23;61.65;99214.47;1699485;83;20422;-72
2022/06/24 07:00:33;;;;;;;;;;;;;;;21.28;61.98;99211.89;1699669;84;20095;-71
2022/06/24 07:02:59;;;;;;;;;;;;;;;21.34;60.90;99213.10;1699729;84;20155;-70
2022/06/24 07:05:26;;;;;;;;;;;;;;;21.43;59.96;99216.28;1699328;83;22102;-71
2022/06/24 07:07:52;;;;;;;;;;;;;;;21.53;59.63;99214.10;1699375;84;20095;-72
2022/06/24 07:10:19;;;;;;;;;;;;;;;21.59;58.82;99222.29;1699632;83;20115;-73
2022/06/24 07:12:47;;;;;;;;;;;;;;;21.60;60.32;99222.49;1699496;84;20218;-71
2022/06/24 07:15:16;;;;;;;;;;;;;;;21.65;60.74;99233.27;1699706;83;20119;-73
2022/06/24 07:17:43;;;;;;;;;;;;;;;21.68;59.85;99231.68;1699437;83;21185;-71
2022/06/24 07:20:10;;;;;;;;;;;;;;;21.69;59.00;99239.66;1687555;84;20077;-72
2022/06/24 07:22:38;;;;;;;;;;;;;;;21.72;58.71;99238.06;1674239;84;20143;-70
2022/06/24 07:25:06;;;;;;;;;;;;;;;21.74;58.86;99232.88;1653188;85;20376;-71
2022/06/24 07:27:33;;;;;;;;;;;;;;;21.77;59.05;99239.07;1674314;84;20088;-71
2022/06/24 07:30:02;;;;;;;;;;;;;;;21.87;60.41;99235.48;1674064;85;21204;-69
2022/06/24 07:32:29;;;;;;;;;;;;;;;22.08;60.36;99234.09;1674197;84;20132;-69
2022/06/24 07:34:55;;;;;;;;;;;;;;;22.37;59.05;99225.06;1674227;84;20088;-69
2022/06/24 07:37:21;;;;;;;;;;;;;;;22.61;58.50;99223.37;1674311;84;20152;-70
2022/06/24 07:39:48;;;;;;;;;;;;;;;22.78;57.14;99223.13;1674321;84;20096;-70
2022/06/24 07:42:14;;;;;;;;;;;;;;;22.90;56.77;99224.72;1674418;85;21214;-69
2022/06/24 07:44:43;;;;;;;;;;;;;;;22.99;56.55;99215.28;1674204;85;20215;-69
2022/06/24 07:47:10;;;;;;;;;;;;;;;22.99;55.58;99210.48;1674211;85;20426;-69
2022/06/24 07:49:37;;;;;;;;;;;;;;;22.95;55.69;99215.89;1674216;85;20128;-69
2022/06/24 07:52:04;;;;;;;;;;;;;;;22.97;55.70;99215.69;1674398;85;20121;-69
2022/06/24 07:54:31;;;;;;;;;;;;;;;23.04;55.58;99228.85;1674307;84;21264;-69
2022/06/24 07:56:58;;;;;;;;;;;;;;;23.08;54.85;99226.03;1674123;85;20135;-70
2022/06/24 07:59:25;;;;;;;;;;;;;;;23.10;55.29;99222.23;1674500;85;20428;-69
2022/06/24 08:01:52;;;;;;;;;;;;;;;23.17;55.31;99223.56;1674188;85;20179;-69
2022/06/24 08:04:20;;;;;;;;;;;;;;;23.27;55.25;99224.11;1674206;84;20117;-70
2022/06/24 08:06:49;;;;;;;;;;;;;;;23.33;54.01;99227.47;1674417;85;21734;-69
2022/06/24 08:09:15;;;;;;;;;;;;;;;23.34;52.46;99226.27;1674298;84;20109;-69
2022/06/24 08:11:41;;;;;;;;;;;;;;;23.30;52.49;99226.09;1674314;84;20176;-70
2022/06/24 08:14:07;;;;;;;;;;;;;;;23.23;52.20;99225.53;1674795;84;20124;-69
2022/06/24 08:16:35;;;;;;;;;;;;;;;23.20;52.60;99216.55;1674944;85;20098;-72
2022/06/24 08:19:01;;;;;;;;;;;;;;;23.19;53.11;99228.16;1676764;84;21232;-73
2022/06/24 08:21:27;;;;;;;;;;;;;;;23.15;52.87;99231.57;1674180;84;20080;-70
2022/06/24 08:23:54;;;;;;;;;;;;;;;23.12;53.29;99235.19;1675009;85;20121;-71
2022/06/24 08:26:20;;;;;;;;;;;;;;;23.07;52.26;99228.64;1673291;85;20096;-71
2022/06/24 08:28:46;;;;;;;;;;;;;;;23.02;53.90;99226.45;1676915;84;20097;-72
2022/06/24 08:31:13;;;;;;;;;;;;;;;23.04;54.73;99224.66;1674218;84;21126;-72
2022/06/24 08:33:40;;;;;;;;;;;;;;;23.16;53.50;99223.37;1674921;84;20412;-73
2022/06/24 08:36:07;;;;;;;;;;;;;;;23.28;54.16;99225.10;1677166;84;20124;-72
2022/06/24 08:38:33;;;;;;;;;;;;;;;23.42;52.58;99224.82;1674264;84;20117;-73
2022/06/24 08:41:01;;;;;;;;;;;;;;;23.64;53.20;99224.30;1674287;85;20121;-73
2022/06/24 08:43:30;;;;;;;;;;;;;;;23.86;52.01;99215.70;1674453;85;21236;-73
2022/06/24 08:45:57;;;;;;;;;;;;;;;24.00;51.51;99216.98;1674044;85;20128;-74
2022/06/24 08:48:26;;;;;;;;;;;;;;;24.06;51.26;99218.14;1656277;85;20126;-72
2022/06/24 08:50:53;;;;;;;;;;;;;;;24.09;50.05;99215.91;1674759;85;20116;-73
2022/06/24 08:53:21;;;;;;;;;;;;;;;24.09;50.58;99217.31;1674383;85;20100;-74
2022/06/24 08:55:50;;;;;;;;;;;;;;;24.06;49.73;99216.73;1674584;85;21089;-72
2022/06/24 08:58:16;;;;;;;;;;;;;;;24.03;50.72;99215.55;1675490;84;20116;-68
2022/06/24 09:00:43;;;;;;;;;;;;;;;24.07;50.65;99216.13;1676349;84;20180;-72
2022/06/24 09:03:09;;;;;;;;;;;;;;;24.10;50.44;99214.70;1674644;84;20124;-69
2022/06/24 09:05:36;;;;;;;;;;;;;;;24.14;49.45;99213.26;1674440;84;20088;-67
2022/06/24 09:08:06;;;;;;;;;;;;;;;24.17;50.05;99218.84;1674364;85;21195;-68
2022/06/24 09:10:35;;;;;;;;;;;;;;;24.16;49.86;99215.84;1674883;84;20101;-74
2022/06/24 09:13:02;;;;;;;;;;;;;;;24.20;50.20;99220.02;1677695;85;20122;-70
2022/06/24 09:15:28;;;;;;;;;;;;;;;24.26;49.28;99221.19;1680269;84;20154;-67
2022/06/24 09:17:56;;;;;;;;;;;;;;;24.28;49.73;99224.34;1680528;85;20122;-69
2022/06/24 09:20:24;;;;;;;;;;;;;;;24.22;50.42;99216.98;1680400;85;21149;-70
2022/06/24 09:22:51;;;;;;;;;;;;;;;24.15;49.60;99214.86;1680400;85;20122;-67
2022/06/24 09:25:18;;;;;;;;;;;;;;;24.13;50.19;99215.27;1659456;85;20122;-70
2022/06/24 09:27:45;;;;;;;;;;;;;;;24.07;49.85;99216.13;1680339;85;20570;-68
2022/06/24 09:30:13;;;;;;;;;;;;;;;23.96;50.06;99213.42;1680423;85;20121;-68
2022/06/24 09:32:51;;;;;;;;;;;;;;;23.85;49.50;99202.90;1680755;85;21094;-67
2022/06/24 09:35:18;;;;;;;;;;;;;;;23.82;49.41;99212.13;1680396;85;20110;-70
2022/06/24 09:37:46;;;;;;;;;;;;;;;23.80;50.27;99208.95;1659314;85;20122;-68
2022/06/24 09:40:22;;;;;;;;;;;;;;;23.84;49.23;99209.72;1680479;85;20090;-68
2022/06/24 09:43:06;;;;;;;;;;;;;;;23.80;48.87;99206.94;1680428;85;20102;-71
2022/06/24 09:45:52;;;;;;;;;;;;;;;23.75;49.26;99210.19;1680477;85;21136;-68
2022/06/24 09:48:32;;;;;;;;;;;;;;;23.70;49.32;99203.02;1679752;85;20504;-68
2022/06/24 09:51:07;;;;;;;;;;;;;;;23.75;50.40;99200.98;1679667;85;20460;-68
2022/06/24 09:53:36;;;;;;;;;;;;;;;23.78;50.10;99202.95;1680137;85;20102;-70
2022/06/24 09:56:03;;;;;;;;;;;;;;;23.79;50.63;99209.55;1680386;85;20132;-70
2022/06/24 09:58:30;;;;;;;;;;;;;;;23.83;49.04;99198.31;1679701;85;21200;-68
2022/06/24 10:00:57;;;;;;;;;;;;;;;23.82;49.47;99205.12;1678353;85;20101;-68
2022/06/24 10:03:23;;;;;;;;;;;;;;;23.79;49.10;99203.95;1674609;84;20156;-69
2022/06/24 10:05:51;;;;;;;;;;;;;;;23.78;49.36;99203.75;1674254;84;20093;-68
2022/06/24 10:08:20;;;;;;;;;;;;;;;23.83;49.89;99201.11;1674313;85;20171;-69
2022/06/24 10:10:54;;;;;;;;;;;;;;;23.90;49.67;99201.05;1674428;85;21653;-70
2022/06/24 10:13:32;;;;;;;;;;;;;;;24.01;51.04;99191.34;1674264;85;20104;-70
2022/06/24 10:16:01;;;;;;;;;;;;;;;24.19;50.34;99197.39;1674245;84;20080;-71
2022/06/24 10:18:32;;;;;;;;;;;;;;;24.35;49.37;99196.23;1674369;84;20148;-70
2022/06/24 10:21:02;;;;;;;;;;;;;;;24.56;49.57;99185.37;1673293;84;20155;-72
2022/06/24 10:23:48;;;;;;;;;;;;;;;25.01;49.35;99175.59;1674288;85;21268;-72
2022/06/24 10:26:26;;;;;;;;;;;;;;;25.59;48.20;99178.33;1674472;84;20125;-69
2022/06/24 10:29:05;;;;;;;;;;;;;;;25.97;46.94;99183.16;1674294;85;20145;-71
2022/06/24 10:31:52;;;;;;;;;;;;;;;26.09;45.88;99177.50;1674692;85;20107;-69
2022/06/24 10:34:28;;;;;;;;;;;;;;;26.11;46.66;99175.84;1674310;84;20220;-73
2022/06/24 10:36:58;;;;;;;;;;;;;;;26.18;46.63;99177.13;1674277;85;21267;-71
2022/06/24 10:39:27;;;;;;;;;;;;;;;26.20;46.43;99176.69;1674261;85;20124;-69
2022/06/24 10:42:05;;;;;;;;;;;;;;;26.19;45.13;99168.07;1673986;84;20133;-71
2022/06/24 10:44:35;;;;;;;;;;;;;;;26.13;45.35;99171.20;1674309;84;20130;-72
2022/06/24 10:47:11;;;;;;;;;;;;;;;26.06;45.04;99167.90;1653034;84;20100;-71
2022/06/24 10:49:56;;;;;;;;;;;;;;;26.23;45.13;99177.24;1674407;84;20482;-70
2022/06/24 10:52:37;;;;;;;;;;;;;;;26.56;44.93;99167.78;1674443;85;20113;-70
2022/06/24 10:55:29;;;;;;;;;;;;;;;26.64;44.34;99171.22;1674291;85;20133;-71
2022/06/24 10:58:04;;;;;;;;;;;;;;;26.50;43.52;99165.30;1653039;85;20117;-68
2022/06/24 11:00:48;;;;;;;;;;;;;;;26.25;42.86;99155.09;1674317;84;20096;-69
2022/06/24 11:03:15;;;;;;;;;;;;;;;25.96;44.81;99169.70;1674452;84;21116;-72
2022/06/24 11:05:45;;;;;;;;;;;;;;;25.75;46.14;99163.66;1673984;84;20124;-75
2022/06/24 11:08:14;;;;;;;;;;;;;;;25.65;46.35;99160.59;1674099;85;20110;-71
2022/06/24 11:10:42;;;;;;;;;;;;;;;25.61;45.63;99168.86;1674033;84;20449;-70
2022/06/24 11:13:10;;;;;;;;;;;;;;;25.65;45.69;99161.20;1674160;85;20115;-70
2022/06/24 11:15:42;;;;;;;;;;;;;;;25.75;45.10;99160.84;1674326;84;21118;-72
2022/06/24 11:18:10;;;;;;;;;;;;;;;25.86;45.10;99155.83;1674010;84;20136;-70
2022/06/24 11:20:40;;;;;;;;;;;;;;;26.02;44.54;99163.56;1678789;83;20150;-70
2022/06/24 11:23:11;;;;;;;;;;;;;;;26.24;44.35;99161.95;1699007;83;20467;-68
2022/06/24 11:25:39;;;;;;;;;;;;;;;26.54;45.06;99165.22;1697720;84;20159;-69
2022/06/24 11:28:27;;;;;;;;;;;;;;;26.71;43.53;99161.22;1699665;84;21082;-72
2022/06/24 11:30:54;;;;;;;;;;;;;;;26.73;42.89;99143.89;1669688;83;20090;-71
2022/06/24 11:33:21;;;;;;;;;;;;;;;26.67;43.05;99155.48;1698836;83;20121;-71
2022/06/24 11:35:49;;;;;;;;;;;;;;;26.69;43.58;99155.23;1699193;84;20449;-72
2022/06/24 11:38:15;;;;;;;;;;;;;;;26.71;42.52;99156.20;1699466;84;20119;-73
2022/06/24 11:40:42;;;;;;;;;;;;;;;26.69;42.12;99144.58;1699419;83;21150;-70
2022/06/24 11:43:11;;;;;;;;;;;;;;;26.71;41.67;99151.37;1699257;83;20454;-71
2022/06/24 11:45:41;;;;;;;;;;;;;;;26.65;41.49;99152.48;1670461;84;20123;-72
2022/06/24 11:48:14;;;;;;;;;;;;;;;26.77;42.19;99149.63;1699165;83;20130;-72
2022/06/24 11:50:41;;;;;;;;;;;;;;;27.14;42.25;99143.43;1699536;83;20098;-71
2022/06/24 11:53:07;;;;;;;;;;;;;;;27.57;40.56;99138.95;1699498;83;21558;-70
2022/06/24 11:55:37;;;;;;;;;;;;;;;27.83;39.16;99145.56;1699341;83;20104;-70
2022/06/24 11:58:08;;;;;;;;;;;;;;;27.88;39.44;99138.77;1699142;84;20099;-71
2022/06/24 12:00:36;;;;;;;;;;;;;;;27.86;40.02;99139.04;1699436;83;20473;-71
2022/06/24 12:03:08;;;;;;;;;;;;;;;27.92;40.36;99137.27;1699295;84;20112;-73
2022/06/24 12:05:37;;;;;;;;;;;;;;;27.99;40.29;99140.52;1669266;84;21147;-72
2022/06/24 12:08:04;;;;;;;;;;;;;;;28.06;39.24;99134.07;1699331;83;20098;-71
2022/06/24 12:10:32;;;;;;;;;;;;;;;27.96;39.76;99130.91;1699365;84;20118;-72
2022/06/24 12:13:00;;;;;;;;;;;;;;;28.00;39.58;99137.88;1699459;84;20190;-70
2022/06/24 12:15:34;;;;;;;;;;;;;;;27.85;38.09;99129.78;1699420;83;20103;-72
2022/06/24 12:18:02;;;;;;;;;;;;;;;27.60;39.07;99131.86;1696541;83;21688;-72
2022/06/24 12:20:29;;;;;;;;;;;;;;;27.41;39.12;99128.47;1699282;84;20131;-71
2022/06/24 12:23:16;;;;;;;;;;;;;;;27.46;39.71;99140.63;1699408;83;20431;-71
2022/06/24 12:25:45;;;;;;;;;;;;;;;27.46;39.40;99126.53;1699422;84;20795;-72
2022/06/24 12:28:20;;;;;;;;;;;;;;;27.43;38.62;99120.98;1698874;83;20437;-72
2022/06/24 12:31:04;;;;;;;;;;;;;;;27.54;40.43;99124.34;1699601;84;21768;-72
2022/06/24 12:33:36;;;;;;;;;;;;;;;27.84;38.42;99121.77;1699767;84;20123;-72
2022/06/24 12:36:13;;;;;;;;;;;;;;;28.40;39.25;99120.05;1699645;83;20441;-72
2022/06/24 12:38:45;;;;;;;;;;;;;;;29.02;36.72;99120.64;1699174;84;20468;-73
2022/06/24 12:41:13;;;;;;;;;;;;;;;29.48;35.87;99118.55;1669229;84;20087;-74
2022/06/24 12:43:58;;;;;;;;;;;;;;;29.76;35.86;99123.09;1699757;83;21712;-73
2022/06/24 12:46:27;;;;;;;;;;;;;;;29.85;34.26;99115.48;1699525;83;20123;-72
2022/06/24 12:51:42;;;;;;;;;;;;;;;29.24;35.33;99125.80;1699629;83;20111;-74
2022/06/24 12:54:09;;;;;;;;;;;;;;;28.87;35.60;99119.69;1699645;84;20162;-73
2022/06/24 12:56:35;;;;;;;;;;;;;;;29.00;36.16;99111.82;1699715;84;21129;-72
2022/06/24 12:59:02;;;;;;;;;;;;;;;29.24;34.40;99111.66;1699481;83;20087;-71
2022/06/24 13:01:29;;;;;;;;;;;;;;;29.06;34.10;99117.08;1699623;83;20138;-72